sensor_id;sensor_type;location;lat;lon;timestamp;P1;durP1;ratioP1;P2;durP2;ratioP2
297;SDS011;133;49.626;9.680;2022-07-01T00:00:57;7.83;;;5.57;;
297;SDS011;133;49.626;9.680;2022-07-01T00:03:23;6.10;;;5.40;;
297;SDS011;133;49.626;9.680;2022-07-01T00:05:48;6.30;;;5.20;;
297;SDS011;133;49.626;9.680;2022-07-01T00:08:14;5.73;;;5.43;;
297;SDS011;133;49.626;9.680;2022-07-01T00:10:39;5.43;;;5.03;;
297;SDS011;133;49.626;9.680;2022-07-01T00:13:05;7.90;;;5.17;;
297;SDS011;133;49.626;9.680;2022-07-01T00:15:31;8.27;;;5.87;;
297;SDS011;133;49.626;9.680;2022-07-01T00:17:57;8.40;;;5.40;;
297;SDS011;133;49.626;9.680;2022-07-01T00:20:23;13.60;;;5.83;;
297;SDS011;133;49.626;9.680;2022-07-01T00:22:49;8.93;;;5.50;;
297;SDS011;133;49.626;9.680;2022-07-01T00:25:15;7.43;;;6.13;;
297;SDS011;133;49.626;9.680;2022-07-01T00:27:41;7.50;;;5.80;;
297;SDS011;133;49.626;9.680;2022-07-01T00:30:08;6.33;;;5.20;;
297;SDS011;133;49.626;9.680;2022-07-01T00:32:34;8.23;;;5.70;;
297;SDS011;133;49.626;9.680;2022-07-01T00:35:00;5.57;;;5.27;;
297;SDS011;133;49.626;9.680;2022-07-01T00:37:26;6.80;;;6.40;;
297;SDS011;133;49.626;9.680;2022-07-01T00:39:51;7.60;;;6.10;;
297;SDS011;133;49.626;9.680;2022-07-01T00:42:17;5.67;;;5.37;;
297;SDS011;133;49.626;9.680;2022-07-01T00:44:42;6.23;;;5.90;;
297;SDS011;133;49.626;9.680;2022-07-01T00:47:09;5.40;;;5.10;;
297;SDS011;133;49.626;9.680;2022-07-01T00:49:36;5.83;;;5.53;;
297;SDS011;133;49.626;9.680;2022-07-01T00:52:03;5.60;;;5.30;;
297;SDS011;133;49.626;9.680;2022-07-01T00:54:34;8.43;;;6.20;;
297;SDS011;133;49.626;9.680;2022-07-01T00:57:05;5.80;;;5.50;;
297;SDS011;133;49.626;9.680;2022-07-01T00:59:33;8.00;;;5.57;;
297;SDS011;133;49.626;9.680;2022-07-01T01:02:00;6.40;;;6.00;;
297;SDS011;133;49.626;9.680;2022-07-01T01:04:26;7.90;;;6.27;;
297;SDS011;133;49.626;9.680;2022-07-01T01:06:52;6.43;;;6.03;;
297;SDS011;133;49.626;9.680;2022-07-01T01:09:18;6.13;;;5.50;;
297;SDS011;133;49.626;9.680;2022-07-01T01:11:43;6.10;;;5.80;;
297;SDS011;133;49.626;9.680;2022-07-01T01:14:10;5.50;;;5.20;;
297;SDS011;133;49.626;9.680;2022-07-01T01:16:35;5.53;;;5.23;;
297;SDS011;133;49.626;9.680;2022-07-01T01:19:04;5.83;;;5.57;;
297;SDS011;133;49.626;9.680;2022-07-01T01:21:31;6.80;;;5.90;;
297;SDS011;133;49.626;9.680;2022-07-01T01:23:57;5.70;;;5.40;;
297;SDS011;133;49.626;9.680;2022-07-01T01:26:23;5.97;;;5.67;;
297;SDS011;133;49.626;9.680;2022-07-01T01:28:50;8.77;;;5.77;;
297;SDS011;133;49.626;9.680;2022-07-01T01:31:16;8.93;;;6.10;;
297;SDS011;133;49.626;9.680;2022-07-01T01:33:43;6.50;;;5.10;;
297;SDS011;133;49.626;9.680;2022-07-01T01:36:09;5.60;;;5.30;;
297;SDS011;133;49.626;9.680;2022-07-01T01:38:36;5.03;;;4.80;;
297;SDS011;133;49.626;9.680;2022-07-01T01:41:02;5.10;;;4.80;;
297;SDS011;133;49.626;9.680;2022-07-01T01:43:28;5.73;;;5.43;;
297;SDS011;133;49.626;9.680;2022-07-01T01:45:54;4.77;;;4.47;;
297;SDS011;133;49.626;9.680;2022-07-01T01:48:20;5.33;;;5.03;;
297;SDS011;133;49.626;9.680;2022-07-01T01:50:46;5.60;;;5.30;;
297;SDS011;133;49.626;9.680;2022-07-01T01:53:11;8.57;;;5.50;;
297;SDS011;133;49.626;9.680;2022-07-01T01:55:37;6.00;;;5.70;;
297;SDS011;133;49.626;9.680;2022-07-01T01:58:02;5.90;;;5.60;;
297;SDS011;133;49.626;9.680;2022-07-01T02:00:28;5.57;;;5.27;;
297;SDS011;133;49.626;9.680;2022-07-01T02:02:54;5.60;;;5.30;;
297;SDS011;133;49.626;9.680;2022-07-01T02:05:20;6.40;;;5.10;;
297;SDS011;133;49.626;9.680;2022-07-01T02:07:46;5.80;;;4.90;;
297;SDS011;133;49.626;9.680;2022-07-01T02:10:12;5.53;;;4.70;;
297;SDS011;133;49.626;9.680;2022-07-01T02:12:37;5.97;;;4.40;;
297;SDS011;133;49.626;9.680;2022-07-01T02:15:03;4.90;;;4.60;;
297;SDS011;133;49.626;9.680;2022-07-01T02:17:29;6.00;;;4.50;;
297;SDS011;133;49.626;9.680;2022-07-01T02:19:55;5.50;;;3.90;;
297;SDS011;133;49.626;9.680;2022-07-01T02:22:20;4.67;;;4.40;;
297;SDS011;133;49.626;9.680;2022-07-01T02:24:46;4.67;;;4.40;;
297;SDS011;133;49.626;9.680;2022-07-01T02:27:11;4.40;;;4.10;;
297;SDS011;133;49.626;9.680;2022-07-01T02:29:37;3.60;;;3.40;;
297;SDS011;133;49.626;9.680;2022-07-01T02:32:06;3.63;;;3.43;;
297;SDS011;133;49.626;9.680;2022-07-01T02:34:31;4.03;;;3.83;;
297;SDS011;133;49.626;9.680;2022-07-01T02:36:57;4.40;;;4.10;;
297;SDS011;133;49.626;9.680;2022-07-01T02:39:23;4.30;;;3.40;;
297;SDS011;133;49.626;9.680;2022-07-01T02:41:48;4.40;;;4.10;;
297;SDS011;133;49.626;9.680;2022-07-01T02:44:36;4.37;;;3.40;;
297;SDS011;133;49.626;9.680;2022-07-01T02:47:01;3.80;;;3.60;;
297;SDS011;133;49.626;9.680;2022-07-01T02:49:27;4.00;;;3.80;;
297;SDS011;133;49.626;9.680;2022-07-01T02:51:53;4.83;;;4.13;;
297;SDS011;133;49.626;9.680;2022-07-01T02:54:18;7.83;;;4.40;;
297;SDS011;133;49.626;9.680;2022-07-01T02:56:44;3.73;;;3.53;;
297;SDS011;133;49.626;9.680;2022-07-01T02:59:10;3.87;;;3.67;;
297;SDS011;133;49.626;9.680;2022-07-01T03:01:36;4.03;;;3.83;;
297;SDS011;133;49.626;9.680;2022-07-01T03:04:01;3.87;;;3.67;;
297;SDS011;133;49.626;9.680;2022-07-01T03:06:27;3.63;;;3.20;;
297;SDS011;133;49.626;9.680;2022-07-01T03:08:53;4.00;;;3.50;;
297;SDS011;133;49.626;9.680;2022-07-01T03:11:18;3.10;;;2.90;;
297;SDS011;133;49.626;9.680;2022-07-01T03:13:44;3.37;;;3.20;;
297;SDS011;133;49.626;9.680;2022-07-01T03:16:10;3.90;;;3.70;;
297;SDS011;133;49.626;9.680;2022-07-01T03:18:36;3.27;;;2.93;;
297;SDS011;133;49.626;9.680;2022-07-01T03:21:01;3.30;;;3.10;;
297;SDS011;133;49.626;9.680;2022-07-01T03:23:27;3.10;;;2.90;;
297;SDS011;133;49.626;9.680;2022-07-01T03:25:53;3.20;;;3.00;;
297;SDS011;133;49.626;9.680;2022-07-01T03:28:18;3.90;;;3.57;;
297;SDS011;133;49.626;9.680;2022-07-01T03:30:45;2.80;;;2.60;;
297;SDS011;133;49.626;9.680;2022-07-01T03:33:10;2.80;;;2.60;;
297;SDS011;133;49.626;9.680;2022-07-01T03:35:36;5.30;;;3.10;;
297;SDS011;133;49.626;9.680;2022-07-01T03:38:04;2.93;;;2.73;;
297;SDS011;133;49.626;9.680;2022-07-01T03:40:31;3.20;;;3.00;;
297;SDS011;133;49.626;9.680;2022-07-01T03:42:57;3.43;;;3.23;;
297;SDS011;133;49.626;9.680;2022-07-01T03:45:23;3.67;;;3.20;;
297;SDS011;133;49.626;9.680;2022-07-01T03:47:49;4.20;;;3.53;;
297;SDS011;133;49.626;9.680;2022-07-01T03:50:15;4.23;;;3.37;;
297;SDS011;133;49.626;9.680;2022-07-01T03:52:42;3.13;;;2.93;;
297;SDS011;133;49.626;9.680;2022-07-01T03:55:11;3.70;;;3.50;;
297;SDS011;133;49.626;9.680;2022-07-01T03:57:37;3.40;;;3.20;;
297;SDS011;133;49.626;9.680;2022-07-01T04:00:04;3.30;;;3.10;;
297;SDS011;133;49.626;9.680;2022-07-01T04:02:30;3.37;;;2.93;;
297;SDS011;133;49.626;9.680;2022-07-01T04:04:56;3.03;;;2.83;;
297;SDS011;133;49.626;9.680;2022-07-01T04:07:22;5.07;;;2.50;;
297;SDS011;133;49.626;9.680;2022-07-01T04:09:48;3.20;;;2.53;;
297;SDS011;133;49.626;9.680;2022-07-01T04:12:13;3.10;;;2.90;;
297;SDS011;133;49.626;9.680;2022-07-01T04:14:39;3.00;;;2.80;;
297;SDS011;133;49.626;9.680;2022-07-01T04:17:05;4.27;;;2.70;;
297;SDS011;133;49.626;9.680;2022-07-01T04:19:31;3.07;;;2.87;;
297;SDS011;133;49.626;9.680;2022-07-01T04:21:57;2.63;;;2.47;;
297;SDS011;133;49.626;9.680;2022-07-01T04:24:41;3.00;;;2.80;;
297;SDS011;133;49.626;9.680;2022-07-01T04:27:07;7.70;;;2.60;;
297;SDS011;133;49.626;9.680;2022-07-01T04:29:32;3.30;;;2.30;;
297;SDS011;133;49.626;9.680;2022-07-01T04:31:58;2.50;;;2.30;;
297;SDS011;133;49.626;9.680;2022-07-01T04:34:24;2.50;;;2.30;;
297;SDS011;133;49.626;9.680;2022-07-01T04:36:50;2.40;;;2.20;;
297;SDS011;133;49.626;9.680;2022-07-01T04:39:16;2.37;;;2.17;;
297;SDS011;133;49.626;9.680;2022-07-01T04:41:42;2.40;;;2.20;;
297;SDS011;133;49.626;9.680;2022-07-01T04:44:26;2.30;;;2.10;;
297;SDS011;133;49.626;9.680;2022-07-01T04:46:54;2.43;;;2.23;;
297;SDS011;133;49.626;9.680;2022-07-01T04:49:19;2.80;;;2.60;;
297;SDS011;133;49.626;9.680;2022-07-01T04:51:45;2.70;;;2.50;;
297;SDS011;133;49.626;9.680;2022-07-01T04:54:11;2.47;;;2.30;;
297;SDS011;133;49.626;9.680;2022-07-01T04:56:37;2.97;;;2.40;;
297;SDS011;133;49.626;9.680;2022-07-01T04:59:03;2.63;;;2.40;;
297;SDS011;133;49.626;9.680;2022-07-01T05:01:29;2.40;;;2.20;;
297;SDS011;133;49.626;9.680;2022-07-01T05:03:55;2.67;;;2.30;;
297;SDS011;133;49.626;9.680;2022-07-01T05:06:22;2.50;;;2.30;;
297;SDS011;133;49.626;9.680;2022-07-01T05:08:47;3.20;;;2.73;;
297;SDS011;133;49.626;9.680;2022-07-01T05:11:14;3.13;;;2.93;;
297;SDS011;133;49.626;9.680;2022-07-01T05:13:39;3.37;;;2.80;;
297;SDS011;133;49.626;9.680;2022-07-01T05:16:05;2.97;;;2.77;;
297;SDS011;133;49.626;9.680;2022-07-01T05:18:33;4.80;;;2.30;;
297;SDS011;133;49.626;9.680;2022-07-01T05:21:17;2.60;;;2.40;;
297;SDS011;133;49.626;9.680;2022-07-01T05:24:01;3.13;;;2.77;;
297;SDS011;133;49.626;9.680;2022-07-01T05:26:28;3.40;;;2.60;;
297;SDS011;133;49.626;9.680;2022-07-01T05:28:53;3.43;;;2.50;;
297;SDS011;133;49.626;9.680;2022-07-01T05:31:19;2.43;;;2.23;;
297;SDS011;133;49.626;9.680;2022-07-01T05:33:45;2.73;;;2.60;;
297;SDS011;133;49.626;9.680;2022-07-01T05:36:12;2.80;;;2.60;;
297;SDS011;133;49.626;9.680;2022-07-01T05:38:38;6.07;;;3.20;;
297;SDS011;133;49.626;9.680;2022-07-01T05:41:03;2.97;;;2.77;;
297;SDS011;133;49.626;9.680;2022-07-01T05:43:29;4.57;;;2.63;;
297;SDS011;133;49.626;9.680;2022-07-01T05:45:55;3.47;;;2.53;;
297;SDS011;133;49.626;9.680;2022-07-01T05:48:21;3.10;;;2.90;;
297;SDS011;133;49.626;9.680;2022-07-01T05:50:47;3.20;;;2.73;;
297;SDS011;133;49.626;9.680;2022-07-01T05:53:13;3.57;;;2.70;;
297;SDS011;133;49.626;9.680;2022-07-01T05:55:39;2.97;;;2.77;;
297;SDS011;133;49.626;9.680;2022-07-01T05:58:05;2.87;;;2.67;;
297;SDS011;133;49.626;9.680;2022-07-01T06:00:33;3.63;;;2.70;;
297;SDS011;133;49.626;9.680;2022-07-01T06:02:59;4.60;;;3.07;;
297;SDS011;133;49.626;9.680;2022-07-01T06:05:25;2.93;;;2.73;;
297;SDS011;133;49.626;9.680;2022-07-01T06:07:51;2.77;;;2.57;;
297;SDS011;133;49.626;9.680;2022-07-01T06:10:17;3.47;;;2.87;;
297;SDS011;133;49.626;9.680;2022-07-01T06:12:43;3.20;;;3.00;;
297;SDS011;133;49.626;9.680;2022-07-01T06:15:10;3.87;;;2.67;;
297;SDS011;133;49.626;9.680;2022-07-01T06:17:38;2.67;;;2.47;;
297;SDS011;133;49.626;9.680;2022-07-01T06:20:05;3.37;;;3.20;;
297;SDS011;133;49.626;9.680;2022-07-01T06:22:32;3.50;;;2.90;;
297;SDS011;133;49.626;9.680;2022-07-01T06:24:58;3.23;;;3.03;;
297;SDS011;133;49.626;9.680;2022-07-01T06:27:24;2.83;;;2.63;;
297;SDS011;133;49.626;9.680;2022-07-01T06:29:50;4.03;;;2.70;;
297;SDS011;133;49.626;9.680;2022-07-01T06:32:16;2.97;;;2.77;;
297;SDS011;133;49.626;9.680;2022-07-01T06:34:41;2.83;;;2.63;;
297;SDS011;133;49.626;9.680;2022-07-01T06:37:07;3.07;;;2.70;;
297;SDS011;133;49.626;9.680;2022-07-01T06:39:33;2.77;;;2.57;;
297;SDS011;133;49.626;9.680;2022-07-01T06:41:59;3.67;;;3.20;;
297;SDS011;133;49.626;9.680;2022-07-01T06:44:24;3.03;;;2.83;;
297;SDS011;133;49.626;9.680;2022-07-01T06:46:50;4.40;;;2.60;;
297;SDS011;133;49.626;9.680;2022-07-01T06:49:16;3.30;;;3.10;;
297;SDS011;133;49.626;9.680;2022-07-01T06:51:42;2.83;;;2.63;;
297;SDS011;133;49.626;9.680;2022-07-01T06:54:08;3.10;;;2.90;;
297;SDS011;133;49.626;9.680;2022-07-01T06:56:33;2.90;;;2.70;;
297;SDS011;133;49.626;9.680;2022-07-01T06:58:59;2.97;;;2.77;;
297;SDS011;133;49.626;9.680;2022-07-01T07:01:26;3.20;;;2.70;;
297;SDS011;133;49.626;9.680;2022-07-01T07:03:52;4.53;;;2.63;;
297;SDS011;133;49.626;9.680;2022-07-01T07:06:18;3.00;;;2.80;;
297;SDS011;133;49.626;9.680;2022-07-01T07:08:44;3.10;;;2.90;;
297;SDS011;133;49.626;9.680;2022-07-01T07:11:10;2.90;;;2.70;;
297;SDS011;133;49.626;9.680;2022-07-01T07:13:36;6.93;;;2.50;;
297;SDS011;133;49.626;9.680;2022-07-01T07:16:02;4.27;;;3.13;;
297;SDS011;133;49.626;9.680;2022-07-01T07:18:27;2.70;;;2.50;;
297;SDS011;133;49.626;9.680;2022-07-01T07:20:53;3.00;;;2.80;;
297;SDS011;133;49.626;9.680;2022-07-01T07:23:19;3.43;;;2.50;;
297;SDS011;133;49.626;9.680;2022-07-01T07:25:44;2.73;;;2.53;;
297;SDS011;133;49.626;9.680;2022-07-01T07:28:10;2.80;;;2.60;;
297;SDS011;133;49.626;9.680;2022-07-01T07:30:36;2.77;;;2.50;;
297;SDS011;133;49.626;9.680;2022-07-01T07:33:02;2.93;;;2.73;;
297;SDS011;133;49.626;9.680;2022-07-01T07:35:27;3.77;;;2.53;;
297;SDS011;133;49.626;9.680;2022-07-01T07:37:53;4.07;;;2.70;;
297;SDS011;133;49.626;9.680;2022-07-01T07:40:19;3.53;;;3.20;;
297;SDS011;133;49.626;9.680;2022-07-01T07:42:45;3.17;;;2.97;;
297;SDS011;133;49.626;9.680;2022-07-01T07:45:12;3.30;;;3.10;;
297;SDS011;133;49.626;9.680;2022-07-01T07:47:41;2.80;;;2.60;;
297;SDS011;133;49.626;9.680;2022-07-01T07:50:09;2.57;;;2.40;;
297;SDS011;133;49.626;9.680;2022-07-01T07:52:35;3.10;;;2.90;;
297;SDS011;133;49.626;9.680;2022-07-01T07:55:00;3.63;;;3.03;;
297;SDS011;133;49.626;9.680;2022-07-01T07:57:27;4.03;;;2.73;;
297;SDS011;133;49.626;9.680;2022-07-01T07:59:52;4.80;;;3.10;;
297;SDS011;133;49.626;9.680;2022-07-01T08:02:18;3.23;;;3.03;;
297;SDS011;133;49.626;9.680;2022-07-01T08:04:44;3.40;;;3.30;;
297;SDS011;133;49.626;9.680;2022-07-01T08:07:10;3.13;;;2.93;;
297;SDS011;133;49.626;9.680;2022-07-01T08:09:35;3.20;;;3.00;;
297;SDS011;133;49.626;9.680;2022-07-01T08:12:01;3.40;;;3.20;;
297;SDS011;133;49.626;9.680;2022-07-01T08:14:27;3.77;;;3.57;;
297;SDS011;133;49.626;9.680;2022-07-01T08:16:53;3.63;;;3.10;;
297;SDS011;133;49.626;9.680;2022-07-01T08:19:19;3.83;;;3.63;;
297;SDS011;133;49.626;9.680;2022-07-01T08:21:45;3.40;;;3.20;;
297;SDS011;133;49.626;9.680;2022-07-01T08:24:10;3.73;;;2.90;;
297;SDS011;133;49.626;9.680;2022-07-01T08:26:36;4.17;;;3.17;;
297;SDS011;133;49.626;9.680;2022-07-01T08:29:02;3.83;;;2.70;;
297;SDS011;133;49.626;9.680;2022-07-01T08:31:28;3.23;;;3.03;;
297;SDS011;133;49.626;9.680;2022-07-01T08:33:54;2.70;;;2.50;;
297;SDS011;133;49.626;9.680;2022-07-01T08:36:20;3.17;;;2.97;;
297;SDS011;133;49.626;9.680;2022-07-01T08:38:46;3.20;;;3.00;;
297;SDS011;133;49.626;9.680;2022-07-01T08:41:14;2.97;;;2.77;;
297;SDS011;133;49.626;9.680;2022-07-01T08:43:40;2.80;;;2.60;;
297;SDS011;133;49.626;9.680;2022-07-01T08:46:05;3.10;;;2.47;;
297;SDS011;133;49.626;9.680;2022-07-01T08:48:33;4.20;;;2.80;;
297;SDS011;133;49.626;9.680;2022-07-01T08:50:59;2.70;;;2.50;;
297;SDS011;133;49.626;9.680;2022-07-01T08:53:29;6.30;;;2.47;;
297;SDS011;133;49.626;9.680;2022-07-01T08:55:55;3.60;;;2.97;;
297;SDS011;133;49.626;9.680;2022-07-01T08:58:39;2.70;;;2.50;;
297;SDS011;133;49.626;9.680;2022-07-01T09:01:21;2.30;;;2.10;;
297;SDS011;133;49.626;9.680;2022-07-01T09:03:50;2.83;;;2.63;;
297;SDS011;133;49.626;9.680;2022-07-01T09:06:18;2.60;;;2.40;;
297;SDS011;133;49.626;9.680;2022-07-01T09:08:45;3.00;;;2.60;;
297;SDS011;133;49.626;9.680;2022-07-01T09:11:21;2.87;;;2.70;;
297;SDS011;133;49.626;9.680;2022-07-01T09:16:40;3.80;;;2.60;;
297;SDS011;133;49.626;9.680;2022-07-01T09:19:07;3.27;;;2.30;;
297;SDS011;133;49.626;9.680;2022-07-01T09:21:33;2.90;;;2.70;;
297;SDS011;133;49.626;9.680;2022-07-01T09:24:02;2.90;;;2.50;;
297;SDS011;133;49.626;9.680;2022-07-01T09:26:29;3.27;;;3.07;;
297;SDS011;133;49.626;9.680;2022-07-01T09:28:55;2.77;;;2.57;;
297;SDS011;133;49.626;9.680;2022-07-01T09:31:22;3.50;;;2.77;;
297;SDS011;133;49.626;9.680;2022-07-01T09:34:04;3.57;;;2.93;;
297;SDS011;133;49.626;9.680;2022-07-01T09:36:31;3.30;;;2.90;;
297;SDS011;133;49.626;9.680;2022-07-01T09:39:01;3.30;;;2.97;;
297;SDS011;133;49.626;9.680;2022-07-01T09:41:28;2.87;;;2.67;;
297;SDS011;133;49.626;9.680;2022-07-01T09:44:06;2.90;;;2.70;;
297;SDS011;133;49.626;9.680;2022-07-01T09:46:33;4.40;;;2.83;;
297;SDS011;133;49.626;9.680;2022-07-01T09:48:59;3.03;;;2.83;;
297;SDS011;133;49.626;9.680;2022-07-01T09:51:25;3.10;;;2.90;;
297;SDS011;133;49.626;9.680;2022-07-01T09:53:51;3.27;;;3.13;;
297;SDS011;133;49.626;9.680;2022-07-01T09:56:17;5.53;;;2.93;;
297;SDS011;133;49.626;9.680;2022-07-01T09:58:44;7.53;;;3.37;;
297;SDS011;133;49.626;9.680;2022-07-01T10:01:09;5.33;;;3.00;;
297;SDS011;133;49.626;9.680;2022-07-01T10:03:38;3.87;;;2.93;;
297;SDS011;133;49.626;9.680;2022-07-01T10:14:16;3.20;;;2.90;;
297;SDS011;133;49.626;9.680;2022-07-01T10:16:47;3.93;;;2.40;;
297;SDS011;133;49.626;9.680;2022-07-01T10:21:45;3.20;;;3.00;;
297;SDS011;133;49.626;9.680;2022-07-01T10:24:16;3.33;;;3.13;;
297;SDS011;133;49.626;9.680;2022-07-01T10:26:42;4.40;;;3.27;;
297;SDS011;133;49.626;9.680;2022-07-01T10:32:10;3.87;;;3.00;;
297;SDS011;133;49.626;9.680;2022-07-01T10:35:04;3.40;;;3.20;;
297;SDS011;133;49.626;9.680;2022-07-01T10:37:31;6.47;;;4.03;;
297;SDS011;133;49.626;9.680;2022-07-01T10:42:29;4.20;;;2.93;;
297;SDS011;133;49.626;9.680;2022-07-01T10:47:35;3.17;;;2.97;;
297;SDS011;133;49.626;9.680;2022-07-01T10:52:35;3.40;;;2.80;;
297;SDS011;133;49.626;9.680;2022-07-01T10:55:02;6.20;;;3.17;;
297;SDS011;133;49.626;9.680;2022-07-01T10:57:31;4.87;;;3.73;;
297;SDS011;133;49.626;9.680;2022-07-01T11:04:59;4.33;;;3.60;;
297;SDS011;133;49.626;9.680;2022-07-01T11:07:27;3.73;;;3.30;;
297;SDS011;133;49.626;9.680;2022-07-01T11:09:58;6.27;;;3.80;;
297;SDS011;133;49.626;9.680;2022-07-01T11:12:25;3.43;;;3.20;;
297;SDS011;133;49.626;9.680;2022-07-01T11:14:54;3.93;;;3.27;;
297;SDS011;133;49.626;9.680;2022-07-01T11:17:21;4.00;;;3.57;;
297;SDS011;133;49.626;9.680;2022-07-01T11:19:51;5.07;;;3.50;;
297;SDS011;133;49.626;9.680;2022-07-01T11:22:33;4.17;;;3.20;;
297;SDS011;133;49.626;9.680;2022-07-01T11:25:01;4.27;;;3.87;;
297;SDS011;133;49.626;9.680;2022-07-01T11:27:29;5.13;;;3.43;;
297;SDS011;133;49.626;9.680;2022-07-01T11:29:56;5.03;;;3.50;;
297;SDS011;133;49.626;9.680;2022-07-01T11:32:27;3.90;;;3.60;;
297;SDS011;133;49.626;9.680;2022-07-01T11:34:54;3.57;;;3.37;;
297;SDS011;133;49.626;9.680;2022-07-01T11:37:21;5.20;;;3.83;;
297;SDS011;133;49.626;9.680;2022-07-01T11:40:09;3.97;;;3.60;;
297;SDS011;133;49.626;9.680;2022-07-01T11:42:37;4.33;;;2.93;;
297;SDS011;133;49.626;9.680;2022-07-01T11:45:04;3.97;;;3.67;;
297;SDS011;133;49.626;9.680;2022-07-01T11:47:30;4.50;;;3.60;;
297;SDS011;133;49.626;9.680;2022-07-01T11:49:56;6.13;;;3.57;;
297;SDS011;133;49.626;9.680;2022-07-01T11:52:23;3.33;;;3.13;;
297;SDS011;133;49.626;9.680;2022-07-01T11:54:50;3.13;;;2.93;;
297;SDS011;133;49.626;9.680;2022-07-01T11:57:24;4.33;;;3.20;;
297;SDS011;133;49.626;9.680;2022-07-01T11:59:54;3.77;;;3.20;;
297;SDS011;133;49.626;9.680;2022-07-01T12:02:22;3.10;;;2.93;;
297;SDS011;133;49.626;9.680;2022-07-01T12:04:49;3.53;;;3.23;;
297;SDS011;133;49.626;9.680;2022-07-01T12:07:18;7.40;;;2.90;;
297;SDS011;133;49.626;9.680;2022-07-01T12:09:46;5.47;;;3.10;;
297;SDS011;133;49.626;9.680;2022-07-01T12:12:16;3.00;;;2.80;;
297;SDS011;133;49.626;9.680;2022-07-01T12:14:51;2.83;;;2.60;;
297;SDS011;133;49.626;9.680;2022-07-01T12:17:18;3.83;;;2.40;;
297;SDS011;133;49.626;9.680;2022-07-01T12:19:45;6.20;;;3.37;;
297;SDS011;133;49.626;9.680;2022-07-01T12:22:16;5.70;;;2.90;;
297;SDS011;133;49.626;9.680;2022-07-01T12:24:44;2.70;;;2.50;;
297;SDS011;133;49.626;9.680;2022-07-01T12:27:11;3.13;;;2.43;;
297;SDS011;133;49.626;9.680;2022-07-01T12:32:09;2.70;;;2.50;;
297;SDS011;133;49.626;9.680;2022-07-01T12:37:13;2.93;;;2.40;;
297;SDS011;133;49.626;9.680;2022-07-01T12:39:53;3.43;;;2.27;;
297;SDS011;133;49.626;9.680;2022-07-01T12:44:56;3.77;;;2.40;;
297;SDS011;133;49.626;9.680;2022-07-01T12:49:50;2.83;;;2.43;;
297;SDS011;133;49.626;9.680;2022-07-01T12:52:32;3.17;;;2.80;;
297;SDS011;133;49.626;9.680;2022-07-01T12:54:58;2.93;;;2.73;;
297;SDS011;133;49.626;9.680;2022-07-01T12:57:30;3.20;;;2.90;;
297;SDS011;133;49.626;9.680;2022-07-01T12:59:57;2.80;;;2.60;;
297;SDS011;133;49.626;9.680;2022-07-01T13:02:23;2.97;;;2.80;;
297;SDS011;133;49.626;9.680;2022-07-01T13:04:49;3.20;;;3.00;;
297;SDS011;133;49.626;9.680;2022-07-01T13:07:15;2.87;;;2.67;;
297;SDS011;133;49.626;9.680;2022-07-01T13:09:40;2.47;;;2.30;;
297;SDS011;133;49.626;9.680;2022-07-01T13:12:06;5.07;;;2.47;;
297;SDS011;133;49.626;9.680;2022-07-01T13:14:32;4.30;;;2.87;;
297;SDS011;133;49.626;9.680;2022-07-01T13:16:58;2.40;;;2.20;;
297;SDS011;133;49.626;9.680;2022-07-01T13:19:23;2.83;;;2.63;;
297;SDS011;133;49.626;9.680;2022-07-01T13:21:49;2.90;;;2.40;;
297;SDS011;133;49.626;9.680;2022-07-01T13:24:15;3.10;;;2.30;;
297;SDS011;133;49.626;9.680;2022-07-01T13:26:40;2.73;;;2.60;;
297;SDS011;133;49.626;9.680;2022-07-01T13:29:06;3.67;;;2.77;;
297;SDS011;133;49.626;9.680;2022-07-01T13:31:32;3.13;;;2.73;;
297;SDS011;133;49.626;9.680;2022-07-01T13:33:57;2.77;;;2.60;;
297;SDS011;133;49.626;9.680;2022-07-01T13:36:23;4.10;;;3.00;;
297;SDS011;133;49.626;9.680;2022-07-01T13:38:48;3.00;;;2.80;;
297;SDS011;133;49.626;9.680;2022-07-01T13:41:15;5.00;;;3.33;;
297;SDS011;133;49.626;9.680;2022-07-01T13:43:41;3.47;;;3.20;;
297;SDS011;133;49.626;9.680;2022-07-01T13:46:07;5.67;;;3.07;;
297;SDS011;133;49.626;9.680;2022-07-01T13:48:32;5.10;;;2.80;;
297;SDS011;133;49.626;9.680;2022-07-01T13:50:58;3.20;;;3.00;;
297;SDS011;133;49.626;9.680;2022-07-01T13:53:23;4.00;;;3.07;;
297;SDS011;133;49.626;9.680;2022-07-01T13:55:49;4.10;;;3.00;;
297;SDS011;133;49.626;9.680;2022-07-01T13:58:15;3.30;;;3.10;;
297;SDS011;133;49.626;9.680;2022-07-01T14:00:42;3.00;;;2.80;;
297;SDS011;133;49.626;9.680;2022-07-01T14:03:07;2.90;;;2.70;;
297;SDS011;133;49.626;9.680;2022-07-01T14:05:35;3.30;;;3.10;;
297;SDS011;133;49.626;9.680;2022-07-01T14:08:02;3.67;;;3.27;;
297;SDS011;133;49.626;9.680;2022-07-01T14:10:30;3.17;;;2.97;;
297;SDS011;133;49.626;9.680;2022-07-01T14:12:56;3.37;;;3.20;;
297;SDS011;133;49.626;9.680;2022-07-01T14:15:22;3.50;;;3.30;;
297;SDS011;133;49.626;9.680;2022-07-01T14:17:47;3.50;;;2.97;;
297;SDS011;133;49.626;9.680;2022-07-01T14:20:13;3.07;;;2.87;;
297;SDS011;133;49.626;9.680;2022-07-01T14:22:39;3.10;;;2.90;;
297;SDS011;133;49.626;9.680;2022-07-01T14:25:05;3.77;;;3.23;;
297;SDS011;133;49.626;9.680;2022-07-01T14:27:30;3.10;;;2.90;;
297;SDS011;133;49.626;9.680;2022-07-01T14:29:56;3.07;;;2.87;;
297;SDS011;133;49.626;9.680;2022-07-01T14:32:22;3.37;;;3.10;;
297;SDS011;133;49.626;9.680;2022-07-01T14:34:51;4.03;;;3.23;;
297;SDS011;133;49.626;9.680;2022-07-01T14:37:17;3.00;;;2.80;;
297;SDS011;133;49.626;9.680;2022-07-01T14:39:43;3.60;;;3.23;;
297;SDS011;133;49.626;9.680;2022-07-01T14:42:09;4.37;;;4.03;;
297;SDS011;133;49.626;9.680;2022-07-01T14:44:35;3.40;;;3.20;;
297;SDS011;133;49.626;9.680;2022-07-01T14:47:00;3.30;;;3.10;;
297;SDS011;133;49.626;9.680;2022-07-01T14:49:26;4.27;;;2.97;;
297;SDS011;133;49.626;9.680;2022-07-01T14:51:52;4.37;;;3.20;;
297;SDS011;133;49.626;9.680;2022-07-01T14:54:17;3.40;;;3.20;;
297;SDS011;133;49.626;9.680;2022-07-01T14:56:43;3.93;;;3.20;;
297;SDS011;133;49.626;9.680;2022-07-01T14:59:09;5.03;;;3.30;;
297;SDS011;133;49.626;9.680;2022-07-01T15:01:34;3.10;;;2.90;;
297;SDS011;133;49.626;9.680;2022-07-01T15:04:00;3.30;;;3.10;;
297;SDS011;133;49.626;9.680;2022-07-01T15:06:26;3.53;;;3.37;;
297;SDS011;133;49.626;9.680;2022-07-01T15:08:52;3.20;;;3.00;;
297;SDS011;133;49.626;9.680;2022-07-01T15:11:17;3.20;;;3.00;;
297;SDS011;133;49.626;9.680;2022-07-01T15:13:43;5.50;;;3.20;;
297;SDS011;133;49.626;9.680;2022-07-01T15:16:09;3.57;;;3.07;;
297;SDS011;133;49.626;9.680;2022-07-01T15:18:34;2.90;;;2.70;;
297;SDS011;133;49.626;9.680;2022-07-01T15:21:00;4.13;;;3.10;;
297;SDS011;133;49.626;9.680;2022-07-01T15:23:26;3.20;;;3.00;;
297;SDS011;133;49.626;9.680;2022-07-01T15:25:53;3.10;;;2.90;;
297;SDS011;133;49.626;9.680;2022-07-01T15:28:19;3.07;;;2.87;;
297;SDS011;133;49.626;9.680;2022-07-01T15:30:46;3.00;;;2.80;;
297;SDS011;133;49.626;9.680;2022-07-01T15:33:12;2.90;;;2.70;;
297;SDS011;133;49.626;9.680;2022-07-01T15:35:38;3.27;;;3.07;;
297;SDS011;133;49.626;9.680;2022-07-01T15:38:04;3.10;;;2.90;;
297;SDS011;133;49.626;9.680;2022-07-01T15:40:30;3.30;;;2.90;;
297;SDS011;133;49.626;9.680;2022-07-01T15:42:56;2.90;;;2.70;;
297;SDS011;133;49.626;9.680;2022-07-01T15:45:22;5.33;;;3.00;;
297;SDS011;133;49.626;9.680;2022-07-01T15:47:48;8.37;;;2.80;;
297;SDS011;133;49.626;9.680;2022-07-01T15:50:34;3.10;;;2.90;;
297;SDS011;133;49.626;9.680;2022-07-01T15:53:05;3.20;;;3.03;;
297;SDS011;133;49.626;9.680;2022-07-01T15:55:32;3.23;;;2.80;;
297;SDS011;133;49.626;9.680;2022-07-01T15:57:58;7.37;;;3.03;;
297;SDS011;133;49.626;9.680;2022-07-01T16:00:25;3.03;;;2.83;;
297;SDS011;133;49.626;9.680;2022-07-01T16:02:51;3.00;;;2.80;;
297;SDS011;133;49.626;9.680;2022-07-01T16:05:17;2.70;;;2.50;;
297;SDS011;133;49.626;9.680;2022-07-01T16:07:43;3.00;;;2.83;;
297;SDS011;133;49.626;9.680;2022-07-01T16:10:10;2.93;;;2.73;;
297;SDS011;133;49.626;9.680;2022-07-01T16:12:44;3.97;;;3.10;;
297;SDS011;133;49.626;9.680;2022-07-01T16:15:10;2.90;;;2.70;;
297;SDS011;133;49.626;9.680;2022-07-01T16:17:38;3.20;;;3.00;;
297;SDS011;133;49.626;9.680;2022-07-01T16:20:05;3.40;;;3.20;;
297;SDS011;133;49.626;9.680;2022-07-01T16:22:35;2.93;;;2.77;;